Time,TemperatureF,DewpointF,PressureIn,WindDirection,WindDirectionDegrees,WindSpeedMPH,WindSpeedGustMPH,Humidity,HourlyPrecipIn,Conditions,Clouds,dailyrainin,SoftwareType,DateUTC
2013-04-09 00:03:00,59.0,51.0,30.02,SSW,202,4.0,14.0,76,0.00,,,-99.99,,2013-04-09 04:03:00,
2013-04-09 00:13:00,59.0,51.0,30.02,SSW,202,4.0,14.0,76,0.00,,,-99.99,,2013-04-09 04:13:00,
2013-04-09 00:23:00,58.0,51.0,30.02,North,0,5.0,11.0,77,0.00,,,-99.99,,2013-04-09 04:23:00,
2013-04-09 00:32:00,58.0,51.0,30.02,South,183,4.0,13.0,77,0.00,,,-99.99,,2013-04-09 04:32:00,
2013-04-09 00:42:00,58.0,51.0,30.02,South,183,4.0,13.0,77,0.00,,,-99.99,,2013-04-09 04:42:00,
2013-04-09 00:53:00,58.0,51.0,30.02,South,183,4.0,13.0,77,0.00,,,-99.99,,2013-04-09 04:53:00,
2013-04-09 01:02:00,58.0,51.0,30.01,North,0,2.0,8.0,78,0.00,,,-99.99,,2013-04-09 05:02:00,
2013-04-09 01:12:00,58.0,51.0,30.01,SW,219,3.0,9.0,78,0.00,,,-99.99,,2013-04-09 05:12:00,
2013-04-09 01:22:00,58.0,51.0,30.01,SW,219,3.0,9.0,78,0.00,,,-99.99,,2013-04-09 05:22:00,
2013-04-09 01:32:00,58.0,51.0,30.01,SSW,200,3.0,9.0,77,0.00,,,-99.99,,2013-04-09 05:32:00,
2013-04-09 01:42:00,59.0,52.0,30.01,North,0,2.0,8.0,77,0.00,,,-99.99,,2013-04-09 05:42:00,
2013-04-09 01:52:00,59.0,52.0,30.01,North,0,2.0,8.0,77,0.00,,,-99.99,,2013-04-09 05:52:00,
2013-04-09 02:02:00,59.0,52.0,30.00,North,0,1.0,10.0,77,0.00,,,-99.99,,2013-04-09 06:02:00,
2013-04-09 02:12:00,59.0,52.0,30.00,SSW,196,1.0,7.0,77,0.00,,,-99.99,,2013-04-09 06:12:00,
2013-04-09 02:22:00,59.0,52.0,30.00,SSW,196,1.0,7.0,77,0.00,,,-99.99,,2013-04-09 06:22:00,
2013-04-09 02:32:00,60.0,52.0,30.00,North,0,1.0,8.0,76,0.00,,,-99.99,,2013-04-09 06:32:00,
2013-04-09 02:42:00,60.0,52.0,30.00,North,0,1.0,8.0,76,0.00,,,-99.99,,2013-04-09 06:42:00,
2013-04-09 02:52:00,59.0,51.0,29.99,North,0,0.0,8.0,75,0.00,,,-99.99,,2013-04-09 06:52:00,
2013-04-09 03:02:00,58.0,50.0,29.98,North,0,1.0,6.0,76,0.00,,,-99.99,,2013-04-09 07:02:00,
2013-04-09 03:13:00,58.0,51.0,29.98,North,0,1.0,7.0,78,0.00,,,-99.99,,2013-04-09 07:13:00,
2013-04-09 03:22:00,58.0,51.0,29.98,North,0,1.0,7.0,78,0.00,,,-99.99,,2013-04-09 07:22:00,
2013-04-09 03:32:00,58.0,51.0,29.98,North,0,0.0,0.0,78,0.00,,,-99.99,,2013-04-09 07:32:00,
2013-04-09 03:42:00,58.0,51.0,29.98,North,0,0.0,0.0,78,0.00,,,-99.99,,2013-04-09 07:42:00,
2013-04-09 03:53:00,58.0,52.0,29.98,North,0,0.0,5.0,79,0.00,,,-99.99,,2013-04-09 07:53:00,
2013-04-09 04:03:00,58.0,52.0,29.98,North,0,0.0,2.0,79,0.00,,,-99.99,,2013-04-09 08:03:00,
2013-04-09 04:12:00,58.0,52.0,29.98,North,0,0.0,2.0,79,0.00,,,-99.99,,2013-04-09 08:12:00,
2013-04-09 04:22:00,57.0,51.0,29.98,North,0,0.0,4.0,79,0.00,,,-99.99,,2013-04-09 08:22:00,
2013-04-09 04:32:00,57.0,51.0,29.98,North,0,0.0,0.0,80,0.00,,,-99.99,,2013-04-09 08:32:00,
2013-04-09 04:42:00,57.0,51.0,29.98,North,0,0.0,7.0,81,0.00,,,-99.99,,2013-04-09 08:42:00,
2013-04-09 04:52:00,57.0,51.0,29.98,North,0,0.0,7.0,81,0.00,,,-99.99,,2013-04-09 08:52:00,
2013-04-09 05:02:00,60.0,54.0,29.98,SSW,213,4.0,12.0,81,0.00,,,-99.99,,2013-04-09 09:02:00,
2013-04-09 05:12:00,64.0,55.0,29.99,SW,232,4.0,16.0,73,0.00,,,-99.99,,2013-04-09 09:12:00,
2013-04-09 05:22:00,64.0,55.0,29.99,SW,232,4.0,16.0,73,0.00,,,-99.99,,2013-04-09 09:22:00,
2013-04-09 05:33:00,65.0,54.0,29.99,West,265,5.0,14.0,68,0.00,,,-99.99,,2013-04-09 09:33:00,
2013-04-09 05:43:00,65.0,54.0,29.99,West,265,5.0,14.0,68,0.00,,,-99.99,,2013-04-09 09:43:00,
2013-04-09 05:53:00,65.0,54.0,29.99,SW,230,5.0,17.0,67,0.00,,,-99.99,,2013-04-09 09:53:00,
2013-04-09 06:03:00,65.0,54.0,29.99,SW,232,5.0,14.0,67,0.00,,,-99.99,,2013-04-09 10:03:00,
2013-04-09 06:13:00,65.0,54.0,29.99,SW,232,5.0,14.0,67,0.00,,,-99.99,,2013-04-09 10:13:00,
2013-04-09 06:23:00,65.0,53.0,30.01,WSW,237,5.0,14.0,66,0.00,,,-99.99,,2013-04-09 10:23:00,
2013-04-09 06:33:00,65.0,54.0,30.01,North,0,4.0,12.0,67,0.00,,,-99.99,,2013-04-09 10:33:00,
2013-04-09 06:43:00,65.0,54.0,30.01,North,0,4.0,12.0,67,0.00,,,-99.99,,2013-04-09 10:43:00,
2013-04-09 06:53:00,64.0,53.0,30.01,West,259,2.0,13.0,68,0.00,,,-99.99,,2013-04-09 10:53:00,
2013-04-09 07:02:00,64.0,53.0,30.01,WSW,258,2.0,9.0,68,0.00,,,-99.99,,2013-04-09 11:02:00,
2013-04-09 07:12:00,63.0,53.0,30.03,North,0,4.0,13.0,69,0.00,,,-99.99,,2013-04-09 11:12:00,
2013-04-09 07:22:00,63.0,53.0,30.03,North,0,4.0,13.0,69,0.00,,,-99.99,,2013-04-09 11:22:00,
2013-04-09 07:32:00,63.0,53.0,30.03,North,0,2.0,11.0,70,0.00,,,-99.99,,2013-04-09 11:32:00,
2013-04-09 07:42:00,63.0,53.0,30.03,West,263,2.0,9.0,70,0.00,,,-99.99,,2013-04-09 11:42:00,
2013-04-09 07:52:00,63.0,53.0,30.03,West,263,2.0,9.0,70,0.00,,,-99.99,,2013-04-09 11:52:00,
2013-04-09 08:02:00,63.0,53.0,30.03,North,0,1.0,9.0,70,0.00,,,-99.99,,2013-04-09 12:02:00,
2013-04-09 08:12:00,63.0,53.0,30.03,North,0,1.0,9.0,70,0.00,,,-99.99,,2013-04-09 12:12:00,
2013-04-09 08:22:00,64.0,54.0,30.04,North,0,2.0,12.0,69,0.00,,,-99.99,,2013-04-09 12:22:00,
2013-04-09 08:32:00,64.0,53.0,30.04,West,264,3.0,12.0,68,0.00,,,-99.99,,2013-04-09 12:32:00,
2013-04-09 08:42:00,64.0,53.0,30.04,West,264,3.0,12.0,68,0.00,,,-99.99,,2013-04-09 12:42:00,
2013-04-09 08:53:00,64.0,53.0,30.04,WSW,248,3.0,11.0,68,0.00,,,-99.99,,2013-04-09 12:53:00,
2013-04-09 09:02:00,65.0,54.0,30.05,North,0,3.0,10.0,67,0.00,,,-99.99,,2013-04-09 13:02:00,
2013-04-09 09:12:00,65.0,54.0,30.05,North,0,3.0,10.0,67,0.00,,,-99.99,,2013-04-09 13:12:00,
2013-04-09 09:23:00,66.0,54.0,30.05,West,259,3.0,11.0,65,0.00,,,-99.99,,2013-04-09 13:23:00,
2013-04-09 09:33:00,67.0,54.0,30.04,WSW,251,6.0,17.0,64,0.00,,,-99.99,,2013-04-09 13:33:00,
2013-04-09 09:43:00,67.0,54.0,30.04,WSW,251,6.0,17.0,64,0.00,,,-99.99,,2013-04-09 13:43:00,
2013-04-09 09:53:00,68.0,54.0,30.04,West,269,4.0,14.0,62,0.00,,,-99.99,,2013-04-09 13:53:00,
2013-04-09 10:03:00,68.0,54.0,30.04,WSW,256,4.0,13.0,62,0.00,,,-99.99,,2013-04-09 14:03:00,
2013-04-09 10:12:00,68.0,54.0,30.04,WSW,256,4.0,13.0,62,0.00,,,-99.99,,2013-04-09 14:12:00,
2013-04-09 10:22:00,69.0,55.0,30.06,West,280,2.0,17.0,62,0.00,,,-99.99,,2013-04-09 14:22:00,
2013-04-09 10:32:00,69.0,55.0,30.05,North,0,5.0,18.0,62,0.00,,,-99.99,,2013-04-09 14:32:00,
2013-04-09 10:42:00,69.0,55.0,30.05,North,0,5.0,18.0,62,0.00,,,-99.99,,2013-04-09 14:42:00,
2013-04-09 10:52:00,70.0,55.0,30.05,West,268,2.0,13.0,60,0.00,,,-99.99,,2013-04-09 14:52:00,
2013-04-09 11:02:00,71.0,55.0,30.05,West,266,2.0,12.0,58,0.00,,,-99.99,,2013-04-09 15:02:00,
2013-04-09 11:13:00,71.0,55.0,30.05,West,266,2.0,12.0,58,0.00,,,-99.99,,2013-04-09 15:13:00,
2013-04-09 11:22:00,73.0,57.0,30.05,WSW,254,5.0,14.0,57,0.00,,,-99.99,,2013-04-09 15:22:00,
2013-04-09 11:33:00,74.0,57.0,30.05,WSW,246,5.0,12.0,56,0.00,,,-99.99,,2013-04-09 15:33:00,
2013-04-09 11:43:00,74.0,57.0,30.05,WSW,246,5.0,12.0,56,0.00,,,-99.99,,2013-04-09 15:43:00,
2013-04-09 11:53:00,76.0,57.0,30.04,West,268,5.0,16.0,52,0.00,,,-99.99,,2013-04-09 15:53:00,
2013-04-09 12:03:00,76.0,57.0,30.04,West,281,6.0,16.0,51,0.00,,,-99.99,,2013-04-09 16:03:00,
2013-04-09 12:13:00,76.0,57.0,30.04,West,281,6.0,16.0,51,0.00,,,-99.99,,2013-04-09 16:13:00,
2013-04-09 12:23:00,77.0,56.0,30.03,SW,230,6.0,14.0,49,0.00,,,-99.99,,2013-04-09 16:23:00,
2013-04-09 12:33:00,78.0,57.0,30.03,West,261,7.0,19.0,48,0.00,,,-99.99,,2013-04-09 16:33:00,
2013-04-09 12:42:00,78.0,57.0,30.03,West,261,7.0,19.0,48,0.00,,,-99.99,,2013-04-09 16:42:00,
2013-04-09 12:54:00,78.0,57.0,30.03,WNW,282,6.0,14.0,49,0.00,,,-99.99,,2013-04-09 16:54:00,
2013-04-09 13:02:00,78.0,57.0,30.02,WSW,250,8.0,16.0,48,0.00,,,-99.99,,2013-04-09 17:02:00,
2013-04-09 13:13:00,79.0,56.0,30.02,North,0,5.0,15.0,46,0.00,,,-99.99,,2013-04-09 17:13:00,
2013-04-09 13:23:00,79.0,56.0,30.02,North,0,5.0,15.0,46,0.00,,,-99.99,,2013-04-09 17:23:00,
2013-04-09 13:32:00,80.0,57.0,30.01,SW,236,4.0,14.0,46,0.00,,,-99.99,,2013-04-09 17:32:00,
2013-04-09 13:42:00,80.0,57.0,30.01,SW,236,4.0,14.0,46,0.00,,,-99.99,,2013-04-09 17:42:00,
2013-04-09 13:54:00,80.0,56.0,30.01,WNW,284,6.0,16.0,44,0.00,,,-99.99,,2013-04-09 17:54:00,
2013-04-09 14:02:00,80.0,57.0,30.01,SW,236,7.0,16.0,45,0.00,,,-99.99,,2013-04-09 18:02:00,
2013-04-09 14:13:00,80.0,57.0,30.01,SW,236,7.0,16.0,45,0.00,,,-99.99,,2013-04-09 18:13:00,
2013-04-09 14:23:00,80.0,57.0,30.01,West,269,8.0,20.0,45,0.00,,,-99.99,,2013-04-09 18:23:00,
2013-04-09 14:33:00,81.0,56.0,30.00,West,272,5.0,15.0,43,0.00,,,-99.99,,2013-04-09 18:33:00,
2013-04-09 14:43:00,81.0,56.0,30.00,West,272,5.0,15.0,43,0.00,,,-99.99,,2013-04-09 18:43:00,
2013-04-09 14:53:00,81.0,57.0,30.00,WSW,248,6.0,15.0,44,0.00,,,-99.99,,2013-04-09 18:53:00,
2013-04-09 15:03:00,81.0,57.0,30.00,WSW,248,6.0,15.0,44,0.00,,,-99.99,,2013-04-09 19:03:00,
2013-04-09 15:12:00,81.0,57.0,30.00,WSW,248,6.0,15.0,44,0.00,,,-99.99,,2013-04-09 19:12:00,
2013-04-09 15:22:00,81.0,57.0,30.00,WSW,248,6.0,15.0,44,0.00,,,-99.99,,2013-04-09 19:22:00,
2013-04-09 15:32:00,82.0,57.0,29.99,WSW,241,6.0,17.0,42,0.00,,,-99.99,,2013-04-09 19:32:00,
2013-04-09 15:42:00,82.0,57.0,29.99,WSW,241,6.0,17.0,42,0.00,,,-99.99,,2013-04-09 19:42:00,
2013-04-09 15:53:00,82.0,56.0,29.99,SW,234,5.0,16.0,41,0.00,,,-99.99,,2013-04-09 19:53:00,
2013-04-09 16:02:00,82.0,57.0,29.98,West,268,5.0,14.0,42,0.00,,,-99.99,,2013-04-09 20:02:00,
2013-04-09 16:12:00,82.0,57.0,29.98,West,277,5.0,15.0,42,0.00,,,-99.99,,2013-04-09 20:12:00,
2013-04-09 16:22:00,82.0,57.0,29.98,West,277,5.0,15.0,42,0.00,,,-99.99,,2013-04-09 20:22:00,
2013-04-09 16:33:00,83.0,57.0,29.97,WSW,247,4.0,12.0,41,0.00,,,-99.99,,2013-04-09 20:33:00,
2013-04-09 16:43:00,83.0,57.0,29.97,WSW,247,4.0,12.0,41,0.00,,,-99.99,,2013-04-09 20:43:00,
2013-04-09 16:53:00,83.0,56.0,29.97,West,259,5.0,14.0,40,0.00,,,-99.99,,2013-04-09 20:53:00,
2013-04-09 17:02:00,82.0,57.0,29.97,WSW,242,4.0,12.0,42,0.00,,,-99.99,,2013-04-09 21:02:00,
2013-04-09 17:13:00,82.0,57.0,29.97,WSW,242,4.0,12.0,42,0.00,,,-99.99,,2013-04-09 21:13:00,
2013-04-09 17:22:00,82.0,57.0,29.97,WSW,242,4.0,12.0,42,0.00,,,-99.99,,2013-04-09 21:22:00,
2013-04-09 17:33:00,82.0,57.0,29.97,WSW,253,2.0,10.0,43,0.00,,,-99.99,,2013-04-09 21:33:00,
2013-04-09 17:42:00,82.0,57.0,29.97,WSW,253,2.0,10.0,43,0.00,,,-99.99,,2013-04-09 21:42:00,
2013-04-09 17:53:00,82.0,56.0,29.98,North,0,1.0,10.0,41,0.00,,,-99.99,,2013-04-09 21:53:00,
2013-04-09 18:03:00,82.0,56.0,29.98,North,0,1.0,7.0,41,0.00,,,-99.99,,2013-04-09 22:03:00,
2013-04-09 18:13:00,80.0,57.0,29.97,North,0,0.0,3.0,46,0.00,,,-99.99,,2013-04-09 22:13:00,
2013-04-09 18:23:00,80.0,57.0,29.97,North,0,0.0,3.0,46,0.00,,,-99.99,,2013-04-09 22:23:00,
2013-04-09 18:33:00,79.0,58.0,29.98,North,0,0.0,2.0,48,0.00,,,-99.99,,2013-04-09 22:33:00,
2013-04-09 18:42:00,79.0,58.0,29.98,North,0,0.0,2.0,48,0.00,,,-99.99,,2013-04-09 22:42:00,
2013-04-09 18:54:00,76.0,56.0,29.98,North,0,0.0,7.0,50,0.00,,,-99.99,,2013-04-09 22:54:00,
2013-04-09 19:03:00,74.0,55.0,29.99,North,0,0.0,3.0,52,0.00,,,-99.99,,2013-04-09 23:03:00,
2013-04-09 19:12:00,74.0,55.0,29.98,North,0,0.0,0.0,52,0.00,,,-99.99,,2013-04-09 23:12:00,
2013-04-09 19:23:00,74.0,55.0,29.98,North,0,0.0,0.0,52,0.00,,,-99.99,,2013-04-09 23:23:00,
2013-04-09 19:32:00,73.0,54.0,29.98,North,0,0.0,0.0,52,0.00,,,-99.99,,2013-04-09 23:32:00,
2013-04-09 19:42:00,73.0,54.0,29.98,North,0,0.0,0.0,52,0.00,,,-99.99,,2013-04-09 23:42:00,
2013-04-09 19:53:00,72.0,54.0,29.98,North,0,0.0,0.0,54,0.00,,,-99.99,,2013-04-09 23:53:00,
2013-04-09 20:03:00,72.0,54.0,29.98,North,0,0.0,0.0,54,0.00,,,-99.99,,2013-04-10 00:03:00,
2013-04-09 20:13:00,72.0,54.0,29.98,North,0,0.0,0.0,54,0.00,,,-99.99,,2013-04-10 00:13:00,
2013-04-09 20:23:00,71.0,55.0,29.98,North,0,0.0,0.0,57,0.00,,,-99.99,,2013-04-10 00:23:00,
2013-04-09 20:33:00,69.0,54.0,29.99,North,0,0.0,0.0,58,0.00,,,-99.99,,2013-04-10 00:33:00,
2013-04-09 20:42:00,69.0,54.0,29.99,North,0,0.0,0.0,58,0.00,,,-99.99,,2013-04-10 00:42:00,
2013-04-09 20:52:00,68.0,53.0,30.00,North,0,0.0,0.0,59,0.00,,,-99.99,,2013-04-10 00:52:00,
2013-04-09 21:02:00,67.0,53.0,30.01,North,0,0.0,0.0,60,0.00,,,-99.99,,2013-04-10 01:02:00,
2013-04-09 21:12:00,66.0,53.0,30.01,North,0,0.0,0.0,62,0.00,,,-99.99,,2013-04-10 01:12:00,
2013-04-09 21:23:00,66.0,53.0,30.01,North,0,0.0,0.0,62,0.00,,,-99.99,,2013-04-10 01:23:00,
2013-04-09 21:32:00,65.0,53.0,30.01,North,0,0.0,0.0,64,0.00,,,-99.99,,2013-04-10 01:32:00,
2013-04-09 21:42:00,65.0,53.0,30.01,North,0,0.0,0.0,64,0.00,,,-99.99,,2013-04-10 01:42:00,
2013-04-09 21:52:00,64.0,52.0,30.01,North,0,0.0,0.0,66,0.00,,,-99.99,,2013-04-10 01:52:00,
2013-04-09 22:02:00,63.0,52.0,30.01,North,0,0.0,0.0,68,0.00,,,-99.99,,2013-04-10 02:02:00,
2013-04-09 22:13:00,63.0,53.0,30.00,South,188,0.0,5.0,69,0.00,,,-99.99,,2013-04-10 02:13:00,
2013-04-09 22:22:00,63.0,53.0,30.00,South,188,0.0,5.0,69,0.00,,,-99.99,,2013-04-10 02:22:00,
2013-04-09 22:33:00,63.0,53.0,30.00,South,188,0.0,4.0,69,0.00,,,-99.99,,2013-04-10 02:33:00,
2013-04-09 22:43:00,63.0,53.0,30.00,South,188,0.0,4.0,69,0.00,,,-99.99,,2013-04-10 02:43:00,
2013-04-09 22:52:00,64.0,54.0,30.00,North,0,1.0,6.0,70,0.00,,,-99.99,,2013-04-10 02:52:00,
2013-04-09 23:03:00,66.0,53.0,29.99,North,0,3.0,13.0,62,0.00,,,-99.99,,2013-04-10 03:03:00,
2013-04-09 23:12:00,66.0,53.0,29.99,North,0,3.0,13.0,62,0.00,,,-99.99,,2013-04-10 03:12:00,
2013-04-09 23:22:00,67.0,52.0,29.98,South,191,4.0,13.0,59,0.00,,,-99.99,,2013-04-10 03:22:00,
2013-04-09 23:33:00,67.0,52.0,29.98,North,0,4.0,11.0,59,0.00,,,-99.99,,2013-04-10 03:33:00,
2013-04-09 23:43:00,67.0,52.0,29.98,North,0,4.0,11.0,59,0.00,,,-99.99,,2013-04-10 03:43:00,
2013-04-09 23:53:00,66.0,52.0,29.97,South,173,3.0,8.0,61,0.00,,,-99.99,,2013-04-10 03:53:00,